Latest Weather Observations for Redcliffe

IDQ60901

Issued at 1:51 pm EST Saturday 25 March 2017 (issued every 10 minutes, with the page automatically refreshed every 10 minutes)

About weather observations | Map of Brisbane area stations | Latest observations for Brisbane area | Other Formats
Station Details ID: 040958 Name: REDCLIFFE Lat: -27.22 Lon: 153.09 Height: 12.6 m
Data from the previous 72 hours. | See also: Recent months at Redcliffe
Date/Time
EST
Temp
°C
App
Temp
°C
Dew
Point
°C
Rel
Hum
%
Delta-T
°C
Wind Press
QNH
hPa
Press
MSL
hPa
Rain since
9am
mm
Dir  Spd
km/h
Gust
km/h
Spd
kts
Gust
kts
25/01:30pm 26.6 26.2 20.2 68 4.2 SE 22 28 12 15 1014.6 1014.5 0.0
25/01:00pm 26.2 24.8 20.5 71 3.7 SE 28 33 15 18 1014.9 1014.8 0.0
25/12:30pm 26.6 25.4 20.0 67 4.3 SSE 26 30 14 16 1015.2 1015.1 0.0
25/12:00pm 26.6 26.0 20.4 69 4.1 SE 24 28 13 15 1015.7 1015.6 0.0
25/11:30am 26.4 25.6 20.0 68 4.2 SE 24 28 13 15 1016.1 1016.0 0.0
25/11:00am 26.8 26.0 20.9 70 3.9 SSE 26 30 14 16 1016.6 1016.5 0.0
25/10:30am 26.2 24.6 20.1 69 4.0 SSE 28 32 15 17 1016.7 1016.6 0.0
25/10:00am 25.9 24.0 19.3 67 4.2 SSE 28 33 15 18 1016.7 1016.6 0.0
25/09:30am 25.4 23.5 20.2 73 3.4 SSE 30 32 16 17 1016.8 1016.7 0.0
25/09:00am 25.5 23.5 19.9 71 3.6 SSE 30 33 16 18 1016.7 1016.6 19.6
25/08:30am 24.3 23.0 19.8 76 2.9 S 26 32 14 17 1016.6 1016.5 19.6
25/08:00am 23.4 21.8 19.1 77 2.7 S 26 33 14 18 1016.3 1016.2 19.6
25/07:30am 23.0 21.6 18.7 77 2.7 S 24 30 13 16 1015.9 1015.8 19.6
25/07:00am 23.0 22.0 19.6 81 2.2 S 24 32 13 17 1015.7 1015.6 19.6
25/06:30am 22.6 21.0 19.2 81 2.2 S 26 32 14 17 1015.5 1015.4 19.6
25/06:00am 22.4 20.7 19.0 81 2.2 S 26 33 14 18 1015.0 1014.9 19.6
25/05:30am 22.3 21.7 18.9 81 2.1 SSW 20 30 11 16 1014.7 1014.6 19.6
25/05:00am 22.2 21.8 19.0 82 2.0 S 19 32 10 17 1014.4 1014.3 19.6
25/04:30am 22.3 21.6 19.5 84 1.8 S 22 28 12 15 1014.4 1014.3 19.6
25/04:00am 22.3 21.2 19.5 84 1.8 S 24 32 13 17 1014.3 1014.2 19.6
25/03:30am 22.5 20.5 19.9 85 1.7 S 30 33 16 18 1014.4 1014.3 19.6
25/03:00am 22.6 20.3 19.4 82 2.0 SSE 30 35 16 19 1014.5 1014.4 19.6
25/02:30am 23.3 20.4 19.2 78 2.6 S 33 39 18 21 1014.8 1014.7 19.6
25/02:00am 23.5 20.5 19.0 76 2.9 S 33 37 18 20 1014.9 1014.8 19.6
25/01:30am 23.5 20.8 19.2 77 2.7 S 32 37 17 20 1015.1 1015.0 19.6
25/01:00am 23.5 20.6 18.8 75 3.0 S 32 35 17 19 1015.6 1015.5 19.6
25/12:30am 23.7 20.9 19.0 75 3.0 S 32 35 17 19 1016.0 1015.9 19.6
25/12:00am 23.6 20.8 19.1 76 2.9 S 32 35 17 19 1016.0 1015.9 19.6
 
Date/Time
EST
Temp
°C
App
Temp
°C
Dew
Point
°C
Rel
Hum
%
Delta-T
°C
Wind Press
QNH
hPa
Press
MSL
hPa
Rain since
9am
mm
Dir  Spd
km/h
Gust
km/h
Spd
kts
Gust
kts
24/11:30pm 23.5 20.8 19.2 77 2.7 S 32 37 17 20 1016.1 1016.0 19.6
24/11:00pm 23.0 20.3 19.6 81 2.2 S 33 39 18 21 1016.2 1016.1 19.4
24/10:30pm 23.3 20.6 19.7 80 2.3 S 33 39 18 21 1016.3 1016.2 19.4
24/10:00pm 23.6 20.4 19.5 78 2.6 S 35 41 19 22 1016.2 1016.1 19.4
24/09:30pm 23.8 20.3 19.7 78 2.6 SSE 37 44 20 24 1016.1 1016.0 19.4
24/09:00pm 23.5 19.2 19.6 79 2.5 SSE 41 50 22 27 1016.2 1016.1 19.4
24/08:30pm 23.9 20.4 20.4 81 2.3 SSE 39 48 21 26 1016.2 1016.1 19.4
24/08:00pm 23.8 20.0 20.5 82 2.1 SSE 41 48 22 26 1016.0 1015.9 19.4
24/07:44pm 23.6 21.0 20.7 84 1.9 SE 35 43 19 23 1015.8 1015.7 19.4
24/07:30pm 24.2 23.2 21.3 84 1.9 ESE 28 33 15 18 1015.7 1015.6 18.8
24/07:00pm 24.4 22.0 21.1 82 2.2 SE 35 41 19 22 1015.2 1015.1 18.8
24/06:30pm 24.1 22.9 21.6 86 1.7 SE 30 35 16 19 1015.1 1015.0 18.8
24/06:00pm 23.0 23.5 21.1 89 1.2 ESE 20 28 11 15 1015.0 1014.9 18.8
24/05:30pm 23.4 25.8 21.5 89 1.3 NE 11 13 6 7 1014.5 1014.4 14.2
24/05:00pm 23.5 24.8 21.6 89 1.3 ENE 17 20 9 11 1014.2 1014.1 13.4
24/04:30pm 23.9 21.9 20.8 83 2.0 ESE 32 39 17 21 1014.1 1014.0 2.2
24/04:22pm 25.9 27.0 21.3 76 3.0 E 17 39 9 21 1013.7 1013.6 0.0
24/04:00pm 26.0 27.5 21.2 75 3.2 ENE 15 19 8 10 1013.5 1013.4 0.0
24/03:30pm 26.3 27.4 21.3 74 3.3 NE 17 20 9 11 1013.4 1013.3 0.0
24/03:00pm 26.5 27.4 21.5 74 3.3 NE 19 24 10 13 1013.4 1013.3 0.0
24/02:30pm 27.0 28.2 22.2 75 3.2 NE 19 24 10 13 1013.3 1013.2 0.0
24/02:00pm 27.8 28.6 21.3 67 4.3 ESE 19 22 10 12 1013.5 1013.4 0.0
24/01:30pm 27.2 27.7 21.2 69 4.0 ESE 20 24 11 13 1013.7 1013.6 0.0
24/01:00pm 27.4 29.0 22.1 73 3.6 ESE 17 19 9 10 1014.2 1014.1 0.0
24/12:30pm 27.8 29.5 22.3 72 3.7 ESE 17 20 9 11 1014.5 1014.4 0.0
24/12:00pm 27.2 28.3 21.2 69 4.0 ESE 17 19 9 10 1014.9 1014.8 0.0
24/11:30am 27.5 29.2 22.4 73 3.4 ESE 17 17 9 9 1015.5 1015.4 0.0
24/11:00am 27.2 28.9 21.0 69 4.1 ESE 13 15 7 8 1015.8 1015.7 0.0
24/10:30am 26.8 29.1 22.0 75 3.2 ESE 13 15 7 8 1016.1 1016.0 0.0
24/10:00am 26.6 28.8 21.8 75 3.2 SSE 13 15 7 8 1016.2 1016.1 0.0
24/09:30am 26.1 27.8 21.7 77 2.9 SSE 15 17 8 9 1016.3 1016.2 0.0
24/09:00am 25.5 27.3 21.2 77 2.8 S 13 15 7 8 1016.3 1016.2 -
24/08:30am 25.2 26.9 20.9 77 2.8 S 13 17 7 9 1016.0 1015.9 -
24/08:00am 25.7 27.5 21.8 79 2.6 S 15 22 8 12 1015.9 1015.8 -
24/07:30am 24.7 26.9 21.8 84 1.9 SSW 13 17 7 9 1015.8 1015.7 -
24/07:00am 23.2 25.0 21.1 88 1.4 SSW 13 17 7 9 1015.3 1015.2 -
24/06:30am 22.9 24.2 20.8 88 1.4 SSW 15 17 8 9 1015.0 1014.9 -
24/06:00am 22.8 24.8 20.7 88 1.4 SSW 11 15 6 8 1014.7 1014.6 -
24/05:30am 22.9 24.9 20.8 88 1.4 SSW 11 15 6 8 1014.3 1014.2 -
24/05:00am 23.2 25.6 20.9 87 1.5 SW 9 11 5 6 1014.0 1013.9 -
24/04:30am 23.6 26.3 21.3 87 1.5 SW 9 11 5 6 1013.9 1013.8 -
24/04:00am 23.9 28.3 21.4 86 1.6 CALM 0 4 0 2 1013.9 1013.8 -
24/03:30am 23.8 26.7 21.1 85 1.8 W 7 9 4 5 1013.8 1013.7 -
24/03:00am 23.8 27.7 21.1 85 1.8 W 2 7 1 4 1013.8 1013.7 0.0
24/02:30am 23.8 26.7 20.7 83 2.0 W 6 7 3 4 1014.2 1014.1 -
24/02:00am 23.9 26.8 20.6 82 2.2 WSW 6 7 3 4 1014.4 1014.3 -
24/01:30am 24.0 27.2 20.5 81 2.3 NE 4 7 2 4 1014.8 1014.7 -
24/01:00am 24.3 26.2 20.6 80 2.4 ENE 11 15 6 8 1015.1 1015.0 -
24/12:30am 24.6 26.5 21.3 82 2.2 WSW 13 20 7 11 1015.3 1015.2 -
24/12:00am 25.2 26.6 21.9 82 2.2 ENE 17 19 9 10 1015.2 1015.1 -
 
Date/Time
EST
Temp
°C
App
Temp
°C
Dew
Point
°C
Rel
Hum
%
Delta-T
°C
Wind Press
QNH
hPa
Press
MSL
hPa
Rain since
9am
mm
Dir  Spd
km/h
Gust
km/h
Spd
kts
Gust
kts
23/11:30pm 25.7 28.0 22.0 80 2.5 NE 13 15 7 8 1015.4 1015.3 -
23/11:00pm 25.6 28.3 22.1 81 2.3 NE 11 15 6 8 1015.5 1015.4 -
23/10:30pm 25.7 28.7 22.0 80 2.5 NE 9 11 5 6 1015.9 1015.8 -
23/10:00pm 25.7 27.9 21.8 79 2.6 NE 13 15 7 8 1016.1 1016.0 -
23/09:30pm 25.7 27.4 21.6 78 2.7 ENE 15 19 8 10 1016.0 1015.9 -
23/09:00pm 25.7 27.0 21.6 78 2.7 ENE 17 19 9 10 1016.1 1016.0 0.0
23/08:30pm 25.8 27.4 21.5 77 2.9 ENE 15 19 8 10 1016.2 1016.1 -
23/08:00pm 25.9 26.9 21.1 75 3.2 ENE 17 20 9 11 1015.9 1015.8 -
23/07:30pm 25.9 26.9 21.1 75 3.2 E 17 19 9 10 1015.6 1015.5 -
23/07:00pm 26.0 26.6 21.0 74 3.3 ENE 19 20 10 11 1015.3 1015.2 -
23/06:30pm 26.1 26.4 20.7 72 3.5 ENE 20 24 11 13 1015.0 1014.9 -
23/06:00pm 26.0 26.9 20.8 73 3.4 ENE 17 19 9 10 1014.7 1014.6 -
23/05:30pm 26.3 27.1 20.6 71 3.7 NE 17 19 9 10 1014.5 1014.4 -
23/05:00pm 26.3 27.3 21.1 73 3.4 NE 17 20 9 11 1014.3 1014.2 -
23/04:30pm 26.6 27.4 20.7 70 3.9 NE 17 19 9 10 1014.2 1014.1 -
23/04:00pm 26.5 27.1 21.0 72 3.6 NE 19 20 10 11 1014.0 1013.9 -
23/03:30pm 26.6 27.2 21.4 73 3.5 NE 20 26 11 14 1014.0 1013.9 -
23/03:00pm 27.0 28.3 20.8 69 4.1 NE 15 19 8 10 1013.9 1013.8 -
23/02:30pm 27.1 29.1 20.7 68 4.2 ENE 11 13 6 7 1014.0 1013.9 -
23/02:00pm 26.9 27.8 19.3 63 4.9 NE 13 15 7 8 1014.1 1014.0 -
23/01:30pm 27.1 28.7 19.2 62 5.1 NE 9 11 5 6 1014.5 1014.4 -
23/01:00pm 27.5 29.0 19.0 59 5.5 NE 9 11 5 6 1015.0 1014.9 0.0
23/12:30pm 27.4 29.3 21.4 70 4.0 NNE 13 15 7 8 1015.4 1015.3 0.0
23/12:00pm 26.6 28.0 20.4 69 4.1 NNE 13 19 7 10 1015.7 1015.6 0.0
23/11:30am 26.6 28.2 20.7 70 3.9 N 13 20 7 11 1016.0 1015.9 0.0
23/11:00am 26.5 28.9 21.5 74 3.3 N 11 17 6 9 1016.4 1016.3 0.0
23/10:30am 26.1 27.6 21.3 75 3.2 N 15 19 8 10 1016.5 1016.4 0.0
23/10:00am 25.5 27.3 21.2 77 2.8 NNW 13 19 7 10 1016.7 1016.6 0.0
23/09:30am 25.2 27.2 20.7 76 2.9 N 11 15 6 8 1016.8 1016.7 0.0
23/09:00am 24.9 27.3 21.6 82 2.2 NNE 11 19 6 10 1016.7 1016.6 1.4
23/08:30am 24.9 29.7 22.2 85 1.8 CALM 0 0 0 0 1016.5 1016.4 1.4
23/08:00am 24.2 27.4 21.7 86 1.7 WSW 7 9 4 5 1016.2 1016.1 1.4
23/07:30am 23.8 27.2 21.7 88 1.4 WSW 6 7 3 4 1015.7 1015.6 1.4
23/07:00am 23.6 28.2 21.7 89 1.3 CALM 0 0 0 0 1015.4 1015.3 1.4
23/06:30am 23.4 26.6 21.7 90 1.1 SW 7 9 4 5 1015.4 1015.3 1.4
23/06:00am 23.2 26.3 21.5 90 1.1 SW 7 9 4 5 1015.0 1014.9 1.4
23/05:30am 23.2 26.5 21.5 90 1.1 SW 6 9 3 5 1014.8 1014.7 1.4
23/05:00am 23.1 25.8 21.4 90 1.1 SW 9 9 5 5 1014.6 1014.5 1.4
23/04:30am 23.1 25.8 21.4 90 1.1 SW 9 13 5 7 1014.3 1014.2 1.4
23/04:00am 23.2 26.0 21.5 90 1.1 WSW 9 11 5 6 1014.1 1014.0 1.4
23/03:30am 23.4 26.3 21.7 90 1.1 SW 9 11 5 6 1013.9 1013.8 1.4
23/03:00am 23.5 26.4 21.8 90 1.1 SSW 9 13 5 7 1014.0 1013.9 1.2
23/02:30am 23.5 26.3 21.6 89 1.3 SW 9 11 5 6 1014.1 1014.0 1.2
23/02:00am 23.6 26.8 21.7 89 1.3 SW 7 9 4 5 1014.3 1014.2 1.2
23/01:30am 23.7 26.6 21.8 89 1.3 SSW 9 11 5 6 1014.4 1014.3 1.2
23/01:00am 23.8 26.8 21.9 89 1.3 SW 9 11 5 6 1014.7 1014.6 1.2
23/12:30am 24.0 27.1 22.1 89 1.3 WSW 9 11 5 6 1015.0 1014.9 1.2
23/12:00am 24.1 27.1 22.0 88 1.4 SSW 9 13 5 7 1015.3 1015.2 1.2
 
Date/Time
EST
Temp
°C
App
Temp
°C
Dew
Point
°C
Rel
Hum
%
Delta-T
°C
Wind Press
QNH
hPa
Press
MSL
hPa
Rain since
9am
mm
Dir  Spd
km/h
Gust
km/h
Spd
kts
Gust
kts
22/11:30pm 24.1 27.1 22.0 88 1.4 SSW 9 13 5 7 1015.3 1015.2 1.2
22/11:00pm 24.2 27.2 21.9 87 1.5 SSW 9 11 5 6 1015.4 1015.3 1.2
22/10:30pm 24.3 27.2 21.8 86 1.7 SSW 9 9 5 5 1015.5 1015.4 1.2
22/10:00pm 24.5 27.5 22.0 86 1.7 S 9 11 5 6 1015.7 1015.6 1.2
22/09:30pm 24.4 27.3 21.7 85 1.8 S 9 13 5 7 1015.8 1015.7 1.2
22/09:00pm 24.4 26.5 21.7 85 1.8 S 13 15 7 8 1015.7 1015.6 1.2
22/08:30pm 24.4 26.8 21.5 84 1.9 S 11 13 6 7 1015.5 1015.4 1.2
22/08:00pm 24.5 27.3 21.6 84 1.9 SSW 9 9 5 5 1015.2 1015.1 1.2
22/07:30pm 24.6 27.5 21.7 84 1.9 SSW 9 11 5 6 1014.9 1014.8 1.2
22/07:00pm 24.7 27.6 21.8 84 1.9 S 9 11 5 6 1014.8 1014.7 1.2
22/06:30pm 24.8 27.6 21.5 82 2.2 S 9 11 5 6 1014.7 1014.6 1.2
22/06:00pm 24.9 27.5 21.2 80 2.4 S 9 11 5 6 1014.3 1014.2 1.2
22/05:30pm 25.0 27.7 21.3 80 2.4 S 9 11 5 6 1014.2 1014.1 1.2
22/05:00pm 25.4 28.3 21.7 80 2.5 S 9 13 5 7 1013.9 1013.8 1.2
22/04:30pm 25.4 28.1 21.3 78 2.7 S 9 11 5 6 1013.8 1013.7 1.2
22/04:00pm 25.4 28.3 21.7 80 2.5 W 9 13 5 7 1013.8 1013.7 1.2
22/03:30pm 25.0 27.4 21.5 81 2.3 WNW 11 13 6 7 1013.8 1013.7 1.2
22/03:00pm 24.8 27.3 21.7 83 2.1 W 11 15 6 8 1013.8 1013.7 1.2
22/02:30pm 25.2 26.9 21.7 81 2.3 WNW 15 24 8 13 1013.8 1013.7 0.4
22/02:00pm 26.7 27.4 21.2 72 3.6 NNE 19 24 10 13 1013.9 1013.8 0.4

Latest Capital City Observations: Canberra | Sydney | Melbourne | Brisbane | Adelaide | Perth | Hobart | Darwin

Other Formats:

Comma delimited format used in spreadsheet applications
http://www.bom.gov.au/fwo/IDQ60901/IDQ60901.95591.axf

JavaScript Object Notation format (JSON) in row-major order
http://www.bom.gov.au/fwo/IDQ60901/IDQ60901.95591.json